Time;durP1;ratioP1;P1;durP2;ratioP2;P2;SDS_P1;SDS_P2;PMS_P1;PMS_P2;Temp;Humidity;BMP_temperature;BMP_pressure;BME280_temperature;BME280_humidity;BME280_pressure;Samples;Min_cycle;Max_cycle;Signal;HPM_P1;HPM_P2
2023/08/04 00:02:07;;;;;;;23.73;12.25;;;;;;;11.00;100.00;100834.47;10496576;28;20043;-79
2023/08/04 00:07:08;;;;;;;24.25;11.27;;;;;;;11.14;100.00;100822.03;10468275;28;20067;-79
2023/08/04 00:12:08;;;;;;;36.50;15.68;;;;;;;11.26;100.00;100829.50;10480897;28;20052;-78
2023/08/04 00:17:09;;;;;;;29.65;13.68;;;;;;;11.36;100.00;100831.72;10458591;28;20053;-78
2023/08/04 00:22:09;;;;;;;29.15;15.10;;;;;;;11.51;100.00;100831.50;10477591;28;20123;-78
2023/08/04 00:27:10;;;;;;;27.70;14.38;;;;;;;11.63;100.00;100833.75;10490604;28;20040;-78
2023/08/04 00:32:10;;;;;;;25.63;13.32;;;;;;;11.69;100.00;100831.38;10489226;28;20545;-78
2023/08/04 00:37:11;;;;;;;31.55;16.40;;;;;;;11.79;100.00;100829.16;10490847;28;20039;-79
2023/08/04 00:42:12;;;;;;;21.50;14.00;;;;;;;11.83;100.00;100825.81;10469439;28;20530;-79
2023/08/04 00:47:12;;;;;;;20.50;12.93;;;;;;;11.80;100.00;100839.72;10472976;28;20085;-79
2023/08/04 00:52:13;;;;;;;26.88;11.77;;;;;;;11.80;100.00;100833.56;10474271;28;20444;-78
2023/08/04 00:57:13;;;;;;;21.92;13.15;;;;;;;11.81;100.00;100837.97;10433584;28;20472;-79
2023/08/04 01:02:14;;;;;;;23.63;13.27;;;;;;;11.79;100.00;100845.78;10485306;28;20129;-79
2023/08/04 01:07:23;;;;;;;25.30;12.60;;;;;;;11.70;100.00;100842.78;10444190;28;20488;-79
2023/08/04 01:12:35;;;;;;;23.35;11.48;;;;;;;11.57;100.00;100851.81;10438055;28;20539;-79
2023/08/04 01:17:36;;;;;;;26.10;13.10;;;;;;;11.54;100.00;100857.84;10431122;28;20504;-79
2023/08/04 01:22:37;;;;;;;27.17;12.30;;;;;;;11.52;100.00;100851.63;10444051;28;20119;-78
2023/08/04 01:27:39;;;;;;;31.90;12.90;;;;;;;11.46;100.00;100857.50;10446306;28;20116;-78
2023/08/04 01:32:39;;;;;;;23.25;14.80;;;;;;;11.40;100.00;100854.59;10419791;28;20440;-79
2023/08/04 01:37:40;;;;;;;27.77;12.02;;;;;;;11.34;100.00;100866.56;10427373;28;20056;-79
2023/08/04 01:42:41;;;;;;;23.75;12.93;;;;;;;11.35;100.00;100869.22;10436021;28;20053;-79
2023/08/04 01:47:41;;;;;;;27.98;14.57;;;;;;;11.38;100.00;100869.38;10415870;28;20034;-79
2023/08/04 01:52:42;;;;;;;31.75;15.85;;;;;;;11.31;100.00;100864.69;10405314;28;20076;-79
2023/08/04 01:57:42;;;;;;;36.63;15.45;;;;;;;11.24;100.00;100866.16;10404526;28;20044;-80
2023/08/04 02:02:43;;;;;;;26.73;12.93;;;;;;;11.19;100.00;100864.13;10486741;28;20159;-80
2023/08/04 02:07:43;;;;;;;33.55;16.80;;;;;;;11.24;100.00;100878.34;10487167;28;20052;-80
2023/08/04 02:12:44;;;;;;;27.92;15.90;;;;;;;11.22;100.00;100875.66;10460827;28;20505;-79
2023/08/04 02:17:45;;;;;;;24.92;14.65;;;;;;;11.21;100.00;100867.72;10448421;28;20136;-79
2023/08/04 02:22:45;;;;;;;25.35;13.00;;;;;;;11.16;100.00;100870.16;10404732;28;20136;-79
2023/08/04 02:27:45;;;;;;;31.90;18.92;;;;;;;11.21;100.00;100871.25;10426127;28;20047;-79
2023/08/04 02:32:46;;;;;;;32.70;16.10;;;;;;;11.21;100.00;100872.94;10402118;28;20037;-79
2023/08/04 02:37:47;;;;;;;47.78;20.83;;;;;;;11.17;100.00;100874.56;10427856;28;20043;-79
2023/08/04 02:42:47;;;;;;;36.42;15.57;;;;;;;11.19;100.00;100877.22;10385217;28;20477;-79
2023/08/04 02:47:48;;;;;;;29.80;15.25;;;;;;;11.24;100.00;100892.34;10426258;28;20055;-78
2023/08/04 02:52:48;;;;;;;34.10;18.85;;;;;;;11.29;100.00;100882.06;10429579;28;20128;-79
2023/08/04 02:57:49;;;;;;;29.38;16.30;;;;;;;11.30;100.00;100883.84;10438101;28;20116;-79
2023/08/04 03:02:49;;;;;;;32.78;16.33;;;;;;;11.35;100.00;100884.06;10437906;28;20438;-80
2023/08/04 03:07:50;;;;;;;31.48;19.13;;;;;;;11.39;100.00;100879.00;10442713;28;20105;-80
2023/08/04 03:12:51;;;;;;;32.03;14.90;;;;;;;11.41;100.00;100890.47;10430936;28;20561;-80
2023/08/04 03:17:51;;;;;;;54.10;17.80;;;;;;;11.41;100.00;100886.97;10434043;28;20049;-80
2023/08/04 03:22:52;;;;;;;26.63;16.30;;;;;;;11.43;100.00;100887.94;10411201;28;20452;-80
2023/08/04 03:27:52;;;;;;;39.10;20.02;;;;;;;11.46;100.00;100890.69;10399826;28;20037;-79
2023/08/04 03:32:53;;;;;;;32.50;15.98;;;;;;;11.46;100.00;100899.44;10442601;28;20051;-80
2023/08/04 03:37:53;;;;;;;37.00;18.17;;;;;;;11.43;100.00;100896.66;10468538;28;20041;-79
2023/08/04 03:42:54;;;;;;;36.53;16.90;;;;;;;11.41;100.00;100900.94;10468990;28;20052;-79
2023/08/04 03:47:54;;;;;;;32.40;15.82;;;;;;;11.37;100.00;100898.13;10473023;28;20036;-79
2023/08/04 03:52:55;;;;;;;35.30;17.85;;;;;;;11.36;100.00;100909.44;10478612;28;20037;-79
2023/08/04 03:57:55;;;;;;;27.88;14.55;;;;;;;11.39;100.00;100910.47;10475838;28;20047;-80
2023/08/04 04:02:56;;;;;;;33.33;16.38;;;;;;;11.44;100.00;100902.81;10477023;28;20035;-80
2023/08/04 04:07:57;;;;;;;27.27;15.52;;;;;;;11.48;100.00;100909.09;10459163;28;20518;-80
2023/08/04 04:12:57;;;;;;;29.02;13.95;;;;;;;11.51;100.00;100911.84;10477465;28;20040;-80
2023/08/04 04:17:58;;;;;;;29.63;17.05;;;;;;;11.54;100.00;100917.22;10480584;28;20048;-81
2023/08/04 04:22:58;;;;;;;30.35;16.40;;;;;;;11.57;100.00;100913.03;10478150;28;20439;-79
2023/08/04 04:27:59;;;;;;;28.58;17.10;;;;;;;11.57;100.00;100926.13;10483517;28;20127;-79
2023/08/04 04:32:59;;;;;;;32.03;15.98;;;;;;;11.62;100.00;100931.56;10476913;28;20129;-79
2023/08/04 04:38:00;;;;;;;36.10;16.30;;;;;;;11.66;100.00;100925.63;10482368;28;20036;-78
2023/08/04 04:43:00;;;;;;;26.13;14.65;;;;;;;11.72;100.00;100932.88;10468822;28;20044;-78
2023/08/04 04:48:01;;;;;;;30.75;15.48;;;;;;;11.78;100.00;100929.63;10446964;28;20068;-79
2023/08/04 04:53:01;;;;;;;28.13;14.23;;;;;;;11.84;100.00;100935.13;10486560;28;20544;-78
2023/08/04 04:58:02;;;;;;;30.13;13.68;;;;;;;11.90;100.00;100940.63;10457076;28;20036;-77
2023/08/04 05:03:06;;;;;;;30.42;16.48;;;;;;;11.96;100.00;100938.28;10481530;28;20801;-78
2023/08/04 05:08:06;;;;;;;27.05;14.80;;;;;;;12.03;100.00;100948.25;10462499;28;20094;-78
2023/08/04 05:13:07;;;;;;;33.75;17.05;;;;;;;12.12;100.00;100936.34;10441156;28;20363;-79
2023/08/04 05:18:07;;;;;;;28.50;15.77;;;;;;;12.19;100.00;100934.06;10475137;28;20050;-78
2023/08/04 05:23:11;;;;;;;33.35;15.70;;;;;;;12.27;100.00;100942.25;10484078;28;20039;-78
2023/08/04 05:28:28;;;;;;;30.55;16.15;;;;;;;12.30;100.00;100947.63;10424683;28;20072;-77
2023/08/04 05:33:30;;;;;;;30.48;17.10;;;;;;;12.40;100.00;100953.25;10420741;28;20056;-78
2023/08/04 05:38:31;;;;;;;31.05;15.68;;;;;;;12.47;100.00;100947.41;10461497;28;20565;-78
2023/08/04 05:43:31;;;;;;;33.08;17.23;;;;;;;12.54;100.00;100956.47;10442357;28;20037;-79
2023/08/04 05:48:32;;;;;;;32.00;17.27;;;;;;;12.62;100.00;100963.81;10437328;28;20133;-80
2023/08/04 05:53:33;;;;;;;36.50;23.47;;;;;;;12.75;100.00;100973.09;10417195;28;20504;-80
2023/08/04 05:58:34;;;;;;;27.33;17.58;;;;;;;12.83;100.00;100972.50;10454822;28;20045;-80
2023/08/04 06:03:34;;;;;;;34.90;16.70;;;;;;;12.86;100.00;100973.50;10453403;28;20423;-80
2023/08/04 06:08:35;;;;;;;27.02;14.45;;;;;;;12.96;100.00;100974.78;10439971;28;20139;-80
2023/08/04 06:13:36;;;;;;;32.17;14.30;;;;;;;13.10;100.00;100975.31;10443934;28;20041;-79
2023/08/04 06:18:36;;;;;;;29.10;16.08;;;;;;;13.26;100.00;100968.03;10464339;28;20086;-79
2023/08/04 06:23:37;;;;;;;23.13;12.40;;;;;;;13.38;100.00;100975.50;10459280;28;20102;-80
2023/08/04 06:28:37;;;;;;;20.50;12.43;;;;;;;13.45;100.00;100977.56;10481927;28;20111;-78
2023/08/04 06:33:39;;;;;;;22.48;12.23;;;;;;;13.59;100.00;100983.31;10484729;28;20035;-77
2023/08/04 06:38:40;;;;;;;24.90;13.55;;;;;;;13.82;100.00;100983.25;10463418;28;20111;-78
2023/08/04 06:43:41;;;;;;;22.23;12.70;;;;;;;13.99;100.00;100983.88;10481417;28;20047;-79
2023/08/04 06:48:41;;;;;;;18.38;10.65;;;;;;;14.15;100.00;100986.22;10478583;28;20135;-79
2023/08/04 06:53:42;;;;;;;19.02;11.85;;;;;;;14.41;100.00;100987.94;10483927;28;20086;-78
2023/08/04 06:58:42;;;;;;;22.58;9.75;;;;;;;14.73;100.00;100993.41;10480147;28;20032;-81
2023/08/04 07:03:44;;;;;;;18.90;11.07;;;;;;;15.02;100.00;100994.34;10482979;28;20358;-78
2023/08/04 07:08:45;;;;;;;;;;;;;;;15.24;100.00;100982.72;10466709;28;20128;-78
2023/08/04 07:13:45;;;;;;;27.53;9.33;;;;;;;15.32;100.00;100988.25;10462977;27;19920;-78
2023/08/04 07:18:46;;;;;;;16.77;9.40;;;;;;;15.34;100.00;100993.53;10473718;28;20763;-78
2023/08/04 07:23:46;;;;;;;16.65;9.48;;;;;;;16.65;100.00;101012.09;10432102;28;20390;-80
2023/08/04 07:28:47;;;;;;;20.08;8.73;;;;;;;18.99;100.00;100946.16;10441578;28;20037;-79
2023/08/04 07:33:47;;;;;;;11.43;6.43;;;;;;;19.72;100.00;100955.91;10423693;28;20035;-78
2023/08/04 07:38:48;;;;;;;10.17;6.17;;;;;;;20.77;100.00;100971.94;10400093;28;20035;-77
2023/08/04 07:43:48;;;;;;;11.80;5.90;;;;;;;20.79;100.00;100972.88;10426049;28;20044;-78
2023/08/04 07:48:50;;;;;;;10.70;5.97;;;;;;;21.12;100.00;100987.28;10436476;28;20400;-79
2023/08/04 07:53:50;;;;;;;14.68;7.25;;;;;;;19.56;100.00;100985.81;10412765;28;20500;-78
2023/08/04 07:58:51;;;;;;;18.40;7.17;;;;;;;18.11;100.00;101006.53;10437746;28;20063;-78
2023/08/04 08:03:51;;;;;;;13.18;7.05;;;;;;;17.56;100.00;101030.97;10439454;28;20045;-78
2023/08/04 08:08:52;;;;;;;18.33;6.03;;;;;;;17.82;100.00;101034.16;10419908;28;20155;-78
2023/08/04 08:13:52;;;;;;;12.18;5.90;;;;;;;18.31;100.00;101017.47;10436737;28;20047;-78
2023/08/04 08:18:53;;;;;;;12.13;5.18;;;;;;;18.56;100.00;101031.16;10448736;28;20143;-78
2023/08/04 08:23:54;;;;;;;16.70;5.15;;;;;;;18.41;100.00;101027.38;10480206;28;20037;-78
2023/08/04 08:28:54;;;;;;;9.75;5.72;;;;;;;18.24;100.00;101050.00;10446124;28;20246;-79
2023/08/04 08:33:55;;;;;;;9.38;4.32;;;;;;;21.78;100.00;101032.91;10448739;28;20124;-78
2023/08/04 08:38:55;;;;;;;7.40;4.50;;;;;;;22.04;100.00;101043.66;10466995;28;20128;-78
2023/08/04 08:43:56;;;;;;;8.23;4.10;;;;;;;21.77;100.00;101050.66;10447925;28;20049;-77
2023/08/04 08:48:58;;;;;;;15.73;5.30;;;;;;;20.87;100.00;101057.16;10437756;28;20073;-78
2023/08/04 08:53:58;;;;;;;;;;;;;;;20.07;100.00;101061.69;10442404;28;20041;-82
2023/08/04 08:58:58;;;;;;;7.80;5.13;;;;;;;19.20;100.00;101056.97;10488604;28;19926;-80
2023/08/04 09:03:59;;;;;;;6.70;3.92;;;;;;;19.46;100.00;101078.59;10460188;28;20303;-80
2023/08/04 09:09:02;;;;;;;5.73;3.40;;;;;;;21.96;100.00;101061.41;10464583;28;20040;-78
2023/08/04 09:14:02;;;;;;;6.40;3.55;;;;;;;23.61;100.00;101097.06;10411754;28;20029;-79
2023/08/04 09:19:04;;;;;;;10.63;3.27;;;;;;;22.56;100.00;101095.34;10422092;28;20400;-79
2023/08/04 09:24:08;;;;;;;14.27;4.47;;;;;;;21.56;100.00;101105.56;10432775;28;20049;-80
2023/08/04 09:29:09;;;;;;;9.77;3.28;;;;;;;21.05;100.00;101110.53;10435679;28;20099;-79
2023/08/04 09:34:10;;;;;;;7.40;3.90;;;;;;;20.62;100.00;101112.75;10436951;28;20037;-78
2023/08/04 09:39:11;;;;;;;6.43;4.27;;;;;;;20.71;100.00;101114.63;10439333;28;20037;-80
2023/08/04 09:44:14;;;;;;;8.23;3.78;;;;;;;20.88;100.00;101110.41;10441850;28;20473;-79
2023/08/04 09:49:14;;;;;;;7.80;4.43;;;;;;;21.16;100.00;101105.31;10406595;28;20070;-81
2023/08/04 09:54:15;;;;;;;9.43;4.03;;;;;;;21.26;100.00;101116.88;10431832;28;20041;-79
2023/08/04 09:59:17;;;;;;;6.23;3.90;;;;;;;20.95;100.00;101117.56;10414187;28;20064;-79
2023/08/04 10:04:18;;;;;;;8.40;3.35;;;;;;;20.88;100.00;101113.06;10470253;28;20037;-78
2023/08/04 10:09:19;;;;;;;7.13;3.40;;;;;;;21.06;100.00;101120.28;10410482;28;20040;-77
2023/08/04 10:14:19;;;;;;;5.87;2.47;;;;;;;21.22;100.00;101117.75;10432499;28;20048;-79
2023/08/04 10:19:20;;;;;;;5.27;2.77;;;;;;;20.59;100.00;101124.28;10469109;28;20115;-79
2023/08/04 10:24:20;;;;;;;5.80;2.93;;;;;;;21.87;100.00;101119.97;10467147;28;20392;-79
2023/08/04 10:29:30;;;;;;;6.53;2.73;;;;;;;22.31;100.00;101129.91;10502171;28;20119;-79
2023/08/04 10:34:41;;;;;;;4.00;2.83;;;;;;;22.32;100.00;101125.47;10484159;28;20047;-79
2023/08/04 10:39:57;;;;;;;8.48;2.53;;;;;;;21.50;100.00;101128.59;10430583;28;20035;-78
2023/08/04 10:45:08;;;;;;;9.57;3.95;;;;;;;21.16;100.00;101125.69;10434113;28;20063;-78
2023/08/04 10:50:08;;;;;;;5.28;3.33;;;;;;;21.35;100.00;101132.94;10439202;28;20067;-78
2023/08/04 10:55:12;;;;;;;5.57;2.63;;;;;;;23.16;100.00;101121.16;10438741;28;20118;-78
2023/08/04 11:00:14;;;;;;;5.43;2.92;;;;;;;25.77;100.00;101133.13;10441978;28;20112;-78
2023/08/04 11:05:14;;;;;;;5.97;3.50;;;;;;;23.80;100.00;101132.66;10432027;28;20037;-77
2023/08/04 11:10:15;;;;;;;7.40;3.20;;;;;;;22.42;100.00;101124.59;10440825;28;20033;-77
2023/08/04 11:15:15;;;;;;;9.57;3.17;;;;;;;23.18;100.00;101141.63;10423732;28;20041;-78
2023/08/04 11:20:16;;;;;;;8.33;2.77;;;;;;;24.16;100.00;101143.22;10427290;28;20041;-78
2023/08/04 11:25:17;;;;;;;9.13;2.73;;;;;;;26.71;100.00;101152.47;10424848;28;20136;-77
2023/08/04 11:30:17;;;;;;;4.00;2.40;;;;;;;27.74;100.00;101156.16;10433022;28;20373;-77
2023/08/04 11:35:18;;;;;;;6.07;2.50;;;;;;;26.68;100.00;101158.78;10418050;28;20072;-78
2023/08/04 11:40:23;;;;;;;4.97;3.47;;;;;;;27.75;92.14;101156.13;10424938;28;20099;-78
2023/08/04 11:45:24;;;;;;;6.63;2.72;;;;;;;26.52;94.75;101162.59;10473137;28;20044;-79
2023/08/04 11:50:24;;;;;;;10.13;3.10;;;;;;;27.87;98.23;101152.31;10519777;28;20089;-78
2023/08/04 11:55:25;;;;;;;7.73;3.43;;;;;;;24.78;100.00;101167.00;10465766;28;20373;-78
2023/08/04 12:00:32;;;;;;;7.97;2.97;;;;;;;22.42;100.00;101156.59;10450968;28;20090;-77
2023/08/04 12:05:36;;;;;;;8.95;4.43;;;;;;;20.77;100.00;101146.59;10489759;28;20048;-78
2023/08/04 12:10:37;;;;;;;4.25;1.98;;;;;;;21.56;100.00;101147.28;10492604;28;20541;-78
2023/08/04 12:15:53;;;;;;;7.30;2.97;;;;;;;21.42;100.00;101152.50;10481429;27;20067;-78
2023/08/04 12:20:53;;;;;;;4.40;2.22;;;;;;;20.41;100.00;101163.94;10490381;27;20044;-78
2023/08/04 12:25:54;;;;;;;5.00;1.90;;;;;;;19.89;100.00;101171.25;10493848;27;20033;-76
2023/08/04 12:30:54;;;;;;;4.00;1.63;;;;;;;19.65;100.00;101175.31;10491862;27;20051;-76
2023/08/04 12:35:55;;;;;;;3.22;2.05;;;;;;;20.41;100.00;101170.13;10494127;28;20116;-76
2023/08/04 12:40:56;;;;;;;4.47;2.20;;;;;;;24.64;100.00;101170.63;10495102;27;20040;-76
2023/08/04 12:45:57;;;;;;;4.18;1.60;;;;;;;26.37;100.00;101185.16;10493254;27;20908;-76
2023/08/04 12:50:58;;;;;;;3.03;1.47;;;;;;;25.58;100.00;101196.75;10515495;27;20036;-76
2023/08/04 12:55:58;;;;;;;6.40;2.00;;;;;;;24.84;100.00;101190.19;10491468;27;20123;-75
2023/08/04 13:00:59;;;;;;;3.37;1.50;;;;;;;25.27;100.00;101192.53;10487108;28;20048;-76
2023/08/04 13:05:59;;;;;;;4.83;1.37;;;;;;;24.59;100.00;101201.88;10522155;28;20056;-76
2023/08/04 13:11:00;;;;;;;5.37;2.00;;;;;;;23.04;100.00;101194.09;10487842;28;20102;-76
2023/08/04 13:16:01;;;;;;;7.00;3.80;;;;;;;22.82;100.00;101186.06;10454749;28;20056;-76
2023/08/04 13:21:03;;;;;;;8.83;2.00;;;;;;;24.36;100.00;101187.72;10486191;28;20052;-76
2023/08/04 13:26:04;;;;;;;2.78;1.80;;;;;;;26.95;100.00;101210.31;10518454;27;20041;-76
2023/08/04 13:31:05;;;;;;;4.85;1.40;;;;;;;27.62;88.38;101216.41;10463519;28;20037;-76
2023/08/04 13:36:06;;;;;;;2.33;1.40;;;;;;;27.03;88.41;101222.72;10484533;28;20381;-76
2023/08/04 13:41:06;;;;;;;4.03;1.20;;;;;;;28.12;82.89;101225.31;10487766;28;20037;-77
2023/08/04 13:46:07;;;;;;;4.27;1.40;;;;;;;28.88;74.44;101222.00;10485490;28;20157;-76
2023/08/04 13:51:07;;;;;;;2.07;1.33;;;;;;;29.17;78.12;101218.56;10485183;28;20029;-77
2023/08/04 13:56:08;;;;;;;3.77;1.70;;;;;;;27.20;78.26;101228.72;10484462;28;20119;-74
2023/08/04 14:01:08;;;;;;;4.90;2.47;;;;;;;24.87;100.00;101222.28;10487064;28;20052;-74
2023/08/04 14:06:09;;;;;;;2.87;1.20;;;;;;;25.09;100.00;101222.13;10484616;28;20128;-75
2023/08/04 14:11:09;;;;;;;4.60;1.53;;;;;;;24.99;100.00;101223.97;10485230;28;20149;-74
2023/08/04 14:16:11;;;;;;;6.67;1.53;;;;;;;24.13;100.00;101226.13;10482409;28;20093;-73
2023/08/04 14:21:11;;;;;;;4.97;1.70;;;;;;;25.33;100.00;101221.03;10480474;28;20559;-75
2023/08/04 14:26:12;;;;;;;5.40;2.50;;;;;;;24.13;100.00;101234.16;10481145;28;20110;-74
2023/08/04 14:31:12;;;;;;;4.93;1.97;;;;;;;22.08;100.00;101221.34;10485145;28;20107;-74
2023/08/04 14:36:13;;;;;;;5.33;1.40;;;;;;;21.10;100.00;101217.88;10483560;28;20046;-75
2023/08/04 14:41:14;;;;;;;9.73;2.87;;;;;;;20.63;100.00;101211.16;10461614;28;20045;-75
2023/08/04 14:46:14;;;;;;;6.23;1.33;;;;;;;21.79;100.00;101219.38;10466300;28;20041;-77
2023/08/04 14:51:15;;;;;;;3.50;0.93;;;;;;;23.52;100.00;101225.31;10483813;28;20032;-76
2023/08/04 14:56:16;;;;;;;3.97;1.20;;;;;;;23.49;100.00;101227.97;10482259;28;20094;-79
2023/08/04 15:01:16;;;;;;;4.67;1.03;;;;;;;22.41;100.00;101240.16;10497057;28;20068;-76
2023/08/04 15:06:17;;;;;;;1.70;1.03;;;;;;;23.64;100.00;101225.31;10465900;28;20089;-77
2023/08/04 15:11:17;;;;;;;2.20;1.00;;;;;;;24.22;100.00;101241.28;10482679;28;20025;-76
2023/08/04 15:16:18;;;;;;;4.10;1.30;;;;;;;23.18;100.00;101237.72;10478391;28;20041;-76
2023/08/04 15:21:19;;;;;;;4.57;1.53;;;;;;;22.36;100.00;101241.91;10480851;28;20119;-75
2023/08/04 15:26:19;;;;;;;2.77;1.30;;;;;;;22.02;100.00;101241.72;10494322;28;20094;-76
2023/08/04 15:31:20;;;;;;;5.80;1.87;;;;;;;21.97;100.00;101231.03;10482754;28;20369;-76
2023/08/04 15:36:20;;;;;;;2.50;1.33;;;;;;;21.73;100.00;101251.31;10443848;28;20047;-77
2023/08/04 15:41:21;;;;;;;2.03;0.63;;;;;;;21.85;100.00;101256.72;10437529;28;20051;-78
2023/08/04 15:46:21;;;;;;;1.80;1.03;;;;;;;21.48;100.00;101255.50;10440185;28;20473;-77
2023/08/04 15:51:22;;;;;;;5.77;1.17;;;;;;;20.86;100.00;101257.53;10438394;28;20033;-76
2023/08/04 15:56:22;;;;;;;1.57;0.67;;;;;;;20.97;100.00;101242.59;10438459;28;20061;-76
2023/08/04 16:01:23;;;;;;;2.33;1.00;;;;;;;21.05;100.00;101240.91;10441051;28;20124;-76
2023/08/04 16:06:23;;;;;;;2.87;1.43;;;;;;;20.76;100.00;101240.56;10437351;28;20759;-76
2023/08/04 16:11:25;;;;;;;1.67;0.93;;;;;;;19.89;100.00;101245.63;10438521;28;20477;-76
2023/08/04 16:16:25;;;;;;;7.37;1.47;;;;;;;19.30;100.00;101252.59;10442552;28;20045;-76
2023/08/04 16:21:27;;;;;;;2.80;1.05;;;;;;;19.13;100.00;101262.00;10439581;28;20723;-76
2023/08/04 16:26:28;;;;;;;4.82;1.83;;;;;;;19.03;100.00;101260.94;10420915;28;20041;-76
2023/08/04 16:31:29;;;;;;;2.50;1.55;;;;;;;19.07;100.00;101263.66;10457622;28;20037;-76
2023/08/04 16:36:29;;;;;;;4.95;1.48;;;;;;;19.03;100.00;101263.59;10448323;28;20036;-76
2023/08/04 16:41:30;;;;;;;3.92;1.88;;;;;;;19.41;100.00;101257.19;10447389;28;20033;-76
2023/08/04 16:46:30;;;;;;;3.63;1.60;;;;;;;19.89;100.00;101258.00;10447225;28;20481;-76
2023/08/04 16:51:31;;;;;;;9.38;1.48;;;;;;;20.19;100.00;101264.66;10447154;28;20033;-76
2023/08/04 16:56:35;;;;;;;2.25;1.40;;;;;;;20.18;100.00;101269.06;10446255;28;20431;-76
2023/08/04 17:01:35;;;;;;;3.92;1.88;;;;;;;20.00;100.00;101263.47;10444357;28;20198;-76
2023/08/04 17:06:36;;;;;;;5.32;1.65;;;;;;;19.86;100.00;101257.94;10445651;28;20090;-76
2023/08/04 17:11:36;;;;;;;2.38;1.73;;;;;;;20.19;100.00;101264.66;10444840;28;20043;-76
2023/08/04 17:16:37;;;;;;;2.97;1.70;;;;;;;20.62;100.00;101272.28;10445967;28;20041;-77
2023/08/04 17:21:37;;;;;;;4.07;1.43;;;;;;;20.39;100.00;101279.13;10450768;28;20106;-78
2023/08/04 17:26:38;;;;;;;3.17;1.57;;;;;;;20.30;100.00;101278.06;10445985;28;20222;-76
2023/08/04 17:31:43;;;;;;;6.30;1.65;;;;;;;20.22;100.00;101280.66;10443661;28;20373;-77
2023/08/04 17:36:44;;;;;;;2.42;1.15;;;;;;;20.26;100.00;101282.47;10477641;28;20667;-76
2023/08/04 17:41:44;;;;;;;3.47;2.15;;;;;;;19.98;100.00;101290.03;10475433;28;20037;-76
2023/08/04 17:46:45;;;;;;;4.60;1.80;;;;;;;19.38;100.00;101284.59;10422564;28;20119;-77
2023/08/04 17:51:45;;;;;;;3.40;1.52;;;;;;;18.75;100.00;101289.53;10444201;28;20087;-77
2023/08/04 17:56:46;;;;;;;4.28;1.45;;;;;;;18.23;100.00;101290.19;10443619;28;20127;-77
2023/08/04 18:01:46;;;;;;;4.25;1.48;;;;;;;17.86;100.00;101305.19;10444945;28;20041;-77
2023/08/04 18:06:47;;;;;;;4.05;1.83;;;;;;;17.54;100.00;101315.84;10444320;28;20396;-79
2023/08/04 18:11:48;;;;;;;3.45;1.77;;;;;;;17.27;100.00;101323.06;10444497;28;20044;-77
2023/08/04 18:16:49;;;;;;;3.72;2.55;;;;;;;16.95;100.00;101323.03;10442026;28;20037;-76
2023/08/04 18:21:53;;;;;;;3.20;2.03;;;;;;;16.68;100.00;101347.78;10434366;28;20048;-77
2023/08/04 18:26:53;;;;;;;2.85;1.70;;;;;;;16.38;100.00;101353.03;10483207;28;20289;-77
2023/08/04 18:31:54;;;;;;;2.38;1.52;;;;;;;16.12;100.00;101356.63;10492861;28;20048;-77
2023/08/04 18:36:54;;;;;;;3.70;2.38;;;;;;;15.96;100.00;101355.25;10499651;28;20068;-77
2023/08/04 18:41:55;;;;;;;4.70;2.47;;;;;;;15.82;100.00;101359.13;10482746;28;20127;-77
2023/08/04 18:46:55;;;;;;;4.05;1.90;;;;;;;15.63;100.00;101370.78;10485060;28;20068;-77
2023/08/04 18:51:56;;;;;;;4.72;2.17;;;;;;;15.48;100.00;101382.56;10477165;28;20117;-77
2023/08/04 18:56:56;;;;;;;6.75;2.42;;;;;;;15.38;100.00;101401.56;10499874;28;20505;-77
2023/08/04 19:01:57;;;;;;;5.85;2.10;;;;;;;15.29;100.00;101425.88;10479685;28;20037;-77
2023/08/04 19:06:57;;;;;;;5.57;2.53;;;;;;;15.10;100.00;101429.53;10444874;28;20126;-77
2023/08/04 19:11:58;;;;;;;8.60;2.65;;;;;;;14.91;100.00;101435.84;10442120;28;20029;-77
2023/08/04 19:17:03;;;;;;;15.73;2.95;;;;;;;14.78;100.00;101442.34;10423190;28;20090;-77
2023/08/04 19:22:03;;;;;;;8.88;3.75;;;;;;;14.70;100.00;101443.78;10471395;28;20032;-77
2023/08/04 19:27:04;;;;;;;11.10;3.53;;;;;;;14.61;100.00;101444.31;10463496;28;20037;-77
2023/08/04 19:32:05;;;;;;;5.28;2.70;;;;;;;14.48;100.00;101450.78;10513119;28;20503;-77
2023/08/04 19:37:06;;;;;;;5.53;3.05;;;;;;;14.34;100.00;101447.59;10469332;28;20093;-77
2023/08/04 19:42:07;;;;;;;6.28;3.33;;;;;;;14.13;100.00;101455.47;10424401;28;20043;-77
2023/08/04 19:47:08;;;;;;;5.65;3.25;;;;;;;13.97;100.00;101454.81;10438806;28;20068;-76
2023/08/04 19:52:08;;;;;;;8.10;2.90;;;;;;;13.82;100.00;101459.41;10438318;28;20124;-77
2023/08/04 19:57:09;;;;;;;7.85;3.72;;;;;;;13.64;100.00;101469.22;10438574;28;20079;-77
2023/08/04 20:02:10;;;;;;;7.82;3.22;;;;;;;13.46;100.00;101465.75;10439724;28;20556;-77
2023/08/04 20:07:10;;;;;;;7.78;3.80;;;;;;;13.37;100.00;101468.81;10444779;28;20120;-77
2023/08/04 20:12:11;;;;;;;10.40;3.42;;;;;;;13.22;100.00;101471.66;10447855;28;20796;-77
2023/08/04 20:17:11;;;;;;;5.00;2.42;;;;;;;13.11;100.00;101475.50;10448698;28;20161;-78
2023/08/04 20:22:12;;;;;;;5.53;2.75;;;;;;;13.02;100.00;101478.56;10438305;28;20135;-77
2023/08/04 20:27:13;;;;;;;7.97;3.67;;;;;;;12.90;100.00;101473.66;10470565;28;20552;-77
2023/08/04 20:32:13;;;;;;;7.10;3.13;;;;;;;12.75;100.00;101473.81;10439341;28;20033;-77
2023/08/04 20:37:14;;;;;;;15.38;4.28;;;;;;;12.61;100.00;101481.91;10426350;28;20045;-77
2023/08/04 20:42:14;;;;;;;9.40;4.38;;;;;;;12.53;100.00;101478.00;10433832;28;20053;-76
2023/08/04 20:47:15;;;;;;;6.43;3.72;;;;;;;12.47;100.00;101488.19;10451336;28;20415;-79
2023/08/04 20:52:15;;;;;;;6.05;2.90;;;;;;;12.43;100.00;101495.03;10440975;28;20543;-77
2023/08/04 20:57:16;;;;;;;9.98;3.97;;;;;;;12.42;100.00;101494.94;10432576;28;20048;-77
2023/08/04 21:02:17;;;;;;;9.02;4.88;;;;;;;12.39;100.00;101500.97;10429051;28;20120;-75
2023/08/04 21:07:20;;;;;;;10.27;4.43;;;;;;;12.37;100.00;101501.69;10433349;28;20052;-75
2023/08/04 21:12:21;;;;;;;10.70;6.40;;;;;;;12.30;100.00;101511.00;10441993;28;20039;-75
2023/08/04 21:17:21;;;;;;;8.75;5.15;;;;;;;12.31;100.00;101513.69;10432748;28;20052;-75
2023/08/04 21:22:22;;;;;;;9.93;5.57;;;;;;;12.30;100.00;101517.13;10444027;28;20040;-75
2023/08/04 21:27:22;;;;;;;10.35;6.10;;;;;;;12.22;100.00;101513.22;10433033;28;20409;-75
2023/08/04 21:32:23;;;;;;;12.55;5.10;;;;;;;12.15;100.00;101518.97;10432024;28;20076;-76
2023/08/04 21:37:23;;;;;;;15.93;6.00;;;;;;;12.05;100.00;101533.34;10438155;28;20113;-75
2023/08/04 21:42:24;;;;;;;11.25;5.00;;;;;;;11.90;100.00;101525.53;10443984;28;20378;-74
2023/08/04 21:47:24;;;;;;;11.93;4.65;;;;;;;11.77;100.00;101530.94;10440717;28;20102;-75
2023/08/04 21:52:25;;;;;;;11.50;4.78;;;;;;;11.70;100.00;101528.00;10415645;28;20112;-74
2023/08/04 21:57:25;;;;;;;11.95;5.95;;;;;;;11.68;100.00;101536.59;10430741;28;20090;-74
2023/08/04 22:02:26;;;;;;;10.63;7.20;;;;;;;11.64;100.00;101532.00;10440002;28;20082;-75
2023/08/04 22:07:26;;;;;;;12.68;7.22;;;;;;;11.62;100.00;101533.66;10433411;28;20382;-75
2023/08/04 22:12:27;;;;;;;10.82;5.45;;;;;;;11.60;100.00;101523.97;10443984;28;20036;-75
2023/08/04 22:17:27;;;;;;;19.45;6.40;;;;;;;11.56;100.00;101526.34;10434149;28;20040;-75
2023/08/04 22:22:28;;;;;;;11.60;6.65;;;;;;;11.50;100.00;101526.94;10438572;28;20128;-75
2023/08/04 22:27:29;;;;;;;14.90;6.82;;;;;;;11.46;100.00;101527.56;10437146;28;20044;-74
2023/08/04 22:32:30;;;;;;;12.70;6.93;;;;;;;11.38;100.00;101527.13;10414205;28;20044;-75
2023/08/04 22:37:30;;;;;;;15.98;7.38;;;;;;;11.36;100.00;101525.28;10422890;28;20041;-75